Luceville, Canada
Current Conditions -  °F | °C
As of 1:00 AM on Friday 28 Nov 2014 (Local Time) from CYYY Reporting Station
Broken Clouds Broken Clouds  
Wind Chill:   Ceiling: 2500
Heat Index: 18°   Visibility: 30mi
Dew Point: 10°   Wind: 7mph
Humidity: 73%   Direction: 340°NNW
Pressure: 30.05"   Gusts: NA
Location:  48.52°N, 68.33°W
Report Text: CYYY 280600Z 34006KT 30SM BKN025 M08/M12 A3005 RMK SC6 SLP178
Loading
Personal Weather Stations






























Interactive Weather Map New forecast layout! Learn more

10-Day Weather Forecast

Advertisements
Track Severe Weather on mobile